Time;durP1;ratioP1;P1;durP2;ratioP2;P2;SDS_P1;SDS_P2;PMS_P1;PMS_P2;Temp;Humidity;BMP_temperature;BMP_pressure;BME280_temperature;BME280_humidity;BME280_pressure;Samples;Min_cycle;Max_cycle;Signal;HPM_P1;HPM_P2
2022/03/24 00:02:22;;;;;;;37.63;21.00;;;5.90;95.20;;;;;;5145407;27;20011;-39
2022/03/24 00:04:47;;;;;;;40.85;22.13;;;5.90;94.90;;;;;;5141123;27;20172;-39
2022/03/24 00:07:13;;;;;;;44.70;24.25;;;5.90;95.60;;;;;;5150333;27;20432;-39
2022/03/24 00:09:38;;;;;;;45.08;23.73;;;5.80;95.70;;;;;;5150889;27;20097;-39
2022/03/24 00:12:06;;;;;;;40.00;22.88;;;5.70;96.10;;;;;;5150786;27;20111;-39
2022/03/24 00:14:31;;;;;;;40.95;22.45;;;5.70;96.10;;;;;;5145257;27;20547;-39
2022/03/24 00:16:57;;;;;;;48.58;23.55;;;5.70;95.80;;;;;;5132307;27;20115;-39
2022/03/24 00:19:23;;;;;;;37.53;22.33;;;5.70;96.90;;;;;;5148920;27;20034;-39
2022/03/24 00:21:49;;;;;;;37.42;22.40;;;5.70;96.40;;;;;;5150767;27;20019;-39
2022/03/24 00:24:15;;;;;;;37.20;22.15;;;5.60;97.30;;;;;;5150660;27;20072;-39
2022/03/24 00:26:42;;;;;;;42.65;23.20;;;5.60;97.10;;;;;;5148611;27;20360;-39
2022/03/24 00:29:09;;;;;;;42.53;24.25;;;5.50;97.90;;;;;;5147783;27;20394;-38
2022/03/24 00:31:35;;;;;;;38.28;22.35;;;5.50;98.20;;;;;;5141405;27;20476;-39
2022/03/24 00:34:00;;;;;;;42.40;23.77;;;5.50;97.90;;;;;;5150535;27;20042;-39
2022/03/24 00:36:26;;;;;;;36.40;22.98;;;5.50;98.60;;;;;;5149784;27;20022;-39
2022/03/24 00:38:55;;;;;;;39.88;21.88;;;5.50;98.60;;;;;;5150484;27;20015;-38
2022/03/24 00:41:22;;;;;;;42.25;24.00;;;5.50;98.00;;;;;;5150525;27;20107;-38
2022/03/24 00:43:48;;;;;;;36.63;21.90;;;5.40;98.70;;;;;;5150433;27;20011;-38
2022/03/24 00:46:22;;;;;;;39.65;23.35;;;5.40;99.50;;;;;;5148090;27;20035;-38
2022/03/24 00:48:49;;;;;;;40.10;22.48;;;5.40;98.60;;;;;;5144505;27;20022;-38
2022/03/24 00:51:15;;;;;;;46.30;25.23;;;5.40;99.10;;;;;;5134230;27;20185;-39
2022/03/24 00:53:41;;;;;;;39.65;22.95;;;5.30;99.90;;;;;;5150481;27;20034;-39
2022/03/24 00:56:07;;;;;;;41.92;22.30;;;5.20;99.90;;;;;;5143457;27;20030;-39
2022/03/24 00:58:32;;;;;;;34.28;21.60;;;5.20;99.90;;;;;;5141509;27;20023;-39
2022/03/24 01:00:58;;;;;;;36.72;21.67;;;5.20;99.90;;;;;;5150146;27;20077;-39
2022/03/24 01:03:23;;;;;;;34.50;21.08;;;5.10;99.90;;;;;;5150146;27;20469;-39
2022/03/24 01:05:49;;;;;;;36.90;21.35;;;5.10;99.90;;;;;;5132853;27;20027;-39
2022/03/24 01:08:17;;;;;;;42.45;24.02;;;5.00;99.90;;;;;;5147179;27;20033;-39
2022/03/24 01:10:42;;;;;;;36.95;22.63;;;4.90;99.90;;;;;;5133357;27;20018;-39
2022/03/24 01:13:09;;;;;;;37.70;22.48;;;4.90;99.90;;;;;;5141345;27;20456;-39
2022/03/24 01:15:35;;;;;;;49.92;24.40;;;4.90;99.90;;;;;;5142899;27;20033;-39
2022/03/24 01:18:02;;;;;;;39.95;23.38;;;4.90;99.90;;;;;;5141287;27;20287;-39
2022/03/24 01:20:28;;;;;;;40.05;23.20;;;4.90;99.90;;;;;;5145963;27;20019;-40
2022/03/24 01:22:54;;;;;;;41.25;22.10;;;4.80;99.90;;;;;;5139882;27;20023;-39
2022/03/24 01:25:23;;;;;;;42.92;23.00;;;4.80;99.90;;;;;;5150032;27;20509;-40
2022/03/24 01:27:51;;;;;;;40.85;24.42;;;4.70;99.90;;;;;;5138053;27;20011;-39
2022/03/24 01:30:17;;;;;;;41.97;24.15;;;4.60;99.90;;;;;;5147594;27;20019;-40
2022/03/24 01:32:42;;;;;;;43.95;24.83;;;4.60;99.90;;;;;;5138273;27;20544;-40
2022/03/24 01:35:08;;;;;;;46.45;24.20;;;4.60;99.90;;;;;;5145585;27;20055;-39
2022/03/24 01:37:37;;;;;;;39.47;23.60;;;4.60;99.90;;;;;;5141467;27;20100;-39
2022/03/24 01:40:08;;;;;;;48.47;23.95;;;4.60;99.90;;;;;;5149061;27;20136;-39
2022/03/24 01:42:35;;;;;;;37.30;23.27;;;4.60;99.90;;;;;;5153720;27;20022;-39
2022/03/24 01:45:02;;;;;;;40.92;23.25;;;4.40;99.90;;;;;;5153739;27;20033;-39
2022/03/24 01:47:27;;;;;;;36.45;21.83;;;4.40;99.90;;;;;;5153072;27;20025;-39
2022/03/24 01:49:58;;;;;;;37.83;22.50;;;4.30;99.90;;;;;;5145920;27;20117;-39
2022/03/24 01:52:25;;;;;;;41.45;23.88;;;4.30;99.90;;;;;;5152237;27;20050;-39
2022/03/24 01:54:54;;;;;;;44.92;24.60;;;4.30;99.90;;;;;;5146587;27;20019;-39
2022/03/24 01:57:21;;;;;;;38.42;21.85;;;4.30;99.90;;;;;;5144024;27;20057;-38
2022/03/24 01:59:48;;;;;;;42.33;22.33;;;4.30;99.90;;;;;;5151503;27;20023;-39
2022/03/24 02:02:14;;;;;;;44.00;23.73;;;4.30;99.90;;;;;;5145203;27;20352;-38
2022/03/24 02:04:40;;;;;;;43.00;22.90;;;4.30;99.90;;;;;;5145413;27;20062;-39
2022/03/24 02:07:07;;;;;;;38.95;22.83;;;4.20;99.90;;;;;;5151406;27;20034;-39
2022/03/24 02:09:35;;;;;;;40.38;22.85;;;4.10;99.90;;;;;;5147949;27;20026;-39
2022/03/24 02:12:03;;;;;;;40.15;22.90;;;4.10;99.90;;;;;;5144886;27;20271;-39
2022/03/24 02:14:29;;;;;;;46.25;24.45;;;4.10;99.90;;;;;;5153645;27;20026;-39
2022/03/24 02:16:55;;;;;;;40.63;23.10;;;4.10;99.90;;;;;;5144358;27;20498;-39
2022/03/24 02:19:23;;;;;;;46.20;24.75;;;4.00;99.90;;;;;;5150840;27;20023;-39
2022/03/24 02:21:51;;;;;;;45.13;25.25;;;4.00;99.90;;;;;;5153086;27;20023;-39
2022/03/24 02:24:21;;;;;;;45.25;24.75;;;4.00;99.90;;;;;;5153043;27;20027;-39
2022/03/24 02:26:48;;;;;;;43.97;23.83;;;4.00;99.90;;;;;;5152173;27;20033;-39
2022/03/24 02:29:16;;;;;;;43.15;23.17;;;4.00;99.90;;;;;;5152975;27;20263;-39
2022/03/24 02:31:47;;;;;;;42.47;23.65;;;3.90;99.90;;;;;;5136352;27;20022;-39
2022/03/24 02:37:22;;;;;;;43.83;22.25;;;3.70;99.90;;;;;;5130917;27;20295;-39
2022/03/24 02:39:50;;;;;;;44.97;22.60;;;3.70;99.90;;;;;;5129021;27;20027;-39
2022/03/24 02:42:18;;;;;;;41.55;22.00;;;3.70;99.90;;;;;;5128245;27;20027;-39
2022/03/24 02:44:56;;;;;;;40.60;22.23;;;3.60;99.90;;;;;;5123721;27;20427;-39
2022/03/24 02:47:23;;;;;;;42.92;22.70;;;3.60;99.90;;;;;;5121234;27;20176;-39
2022/03/24 02:49:50;;;;;;;43.40;24.15;;;3.60;99.90;;;;;;5124785;27;20099;-39
2022/03/24 02:52:16;;;;;;;41.03;22.00;;;3.50;99.90;;;;;;5126178;27;20517;-39
2022/03/24 02:54:42;;;;;;;38.33;22.15;;;3.50;99.90;;;;;;5116815;27;20027;-39
2022/03/24 02:57:08;;;;;;;47.95;25.27;;;3.50;99.90;;;;;;5124423;27;20041;-39
2022/03/24 02:59:34;;;;;;;45.10;24.38;;;3.50;99.90;;;;;;5142189;27;20057;-39
2022/03/24 03:02:12;;;;;;;42.78;23.30;;;3.50;99.90;;;;;;5147221;27;20027;-39
2022/03/24 03:04:41;;;;;;;42.13;23.52;;;3.40;99.90;;;;;;5124146;27;20019;-39
2022/03/24 03:07:07;;;;;;;46.92;24.25;;;3.40;99.90;;;;;;5121270;27;20019;-39
2022/03/24 03:09:34;;;;;;;45.95;23.63;;;3.40;99.90;;;;;;5127728;27;20107;-39
2022/03/24 03:12:00;;;;;;;46.33;23.33;;;3.40;99.90;;;;;;5139605;27;20062;-39
2022/03/24 03:14:27;;;;;;;41.92;23.23;;;3.40;99.90;;;;;;5119837;27;20082;-39
2022/03/24 03:16:53;;;;;;;48.63;24.60;;;3.30;99.90;;;;;;5122411;27;20023;-39
2022/03/24 03:19:19;;;;;;;46.13;24.17;;;3.40;99.90;;;;;;5127894;27;20023;-39
2022/03/24 03:21:50;;;;;;;45.70;25.20;;;3.30;99.90;;;;;;5114813;27;20028;-39
2022/03/24 03:24:16;;;;;;;;;;;3.30;99.90;;;;;;5129190;27;20058;-39
2022/03/24 03:26:42;;;;;;;39.45;22.52;;;3.30;99.90;;;;;;5120340;27;19911;-39
2022/03/24 03:29:08;;;;;;;47.75;24.38;;;3.30;99.90;;;;;;5117979;27;20027;-38
2022/03/24 03:31:34;;;;;;;42.20;22.90;;;3.20;99.90;;;;;;5119814;27;20487;-38
2022/03/24 03:34:01;;;;;;;41.60;23.40;;;3.10;99.90;;;;;;5123294;27;20552;-38
2022/03/24 03:36:27;;;;;;;45.97;23.48;;;3.00;99.90;;;;;;5130501;27;20023;-38
2022/03/24 03:38:52;;;;;;;39.17;22.90;;;3.00;99.90;;;;;;5123215;27;20037;-38
2022/03/24 03:41:22;;;;;;;46.47;24.75;;;3.00;99.90;;;;;;5121249;27;20365;-38
2022/03/24 03:43:49;;;;;;;46.58;24.02;;;3.00;99.90;;;;;;5119775;27;20103;-39
2022/03/24 03:46:15;;;;;;;49.28;25.63;;;3.00;99.90;;;;;;5120979;27;20084;-38
2022/03/24 03:48:41;;;;;;;50.72;26.90;;;3.00;99.90;;;;;;5109983;28;20028;-38
2022/03/24 03:51:10;;;;;;;54.30;26.77;;;3.00;99.90;;;;;;5134377;27;20027;-38
2022/03/24 03:53:36;;;;;;;47.03;24.33;;;3.00;99.90;;;;;;5110359;28;20426;-39
2022/03/24 03:56:04;;;;;;;45.85;25.45;;;2.90;99.90;;;;;;5121833;27;20019;-39
2022/03/24 03:58:29;;;;;;;46.97;25.10;;;2.90;99.90;;;;;;5142753;27;20019;-38
2022/03/24 04:00:58;;;;;;;50.03;24.17;;;2.90;99.90;;;;;;5148641;27;20023;-38
2022/03/24 04:03:25;;;;;;;52.63;29.65;;;2.90;99.90;;;;;;5139064;27;20091;-39
2022/03/24 04:05:55;;;;;;;47.75;26.13;;;2.80;99.90;;;;;;5150382;27;20043;-39
2022/03/24 04:08:21;;;;;;;49.58;29.48;;;2.80;99.90;;;;;;5132026;27;20102;-38
2022/03/24 04:10:50;;;;;;;60.88;31.15;;;2.90;99.90;;;;;;5143841;27;20018;-38
2022/03/24 04:13:18;;;;;;;52.17;27.92;;;2.70;99.90;;;;;;5134813;27;20479;-38
2022/03/24 04:15:45;;;;;;;59.20;31.45;;;2.70;99.90;;;;;;5142563;27;20031;-38
2022/03/24 04:18:11;;;;;;;56.90;30.42;;;2.80;99.90;;;;;;5150889;27;20541;-38
2022/03/24 04:20:36;;;;;;;51.88;29.00;;;2.80;99.90;;;;;;5146033;27;20106;-38
2022/03/24 04:23:05;;;;;;;52.00;29.10;;;2.80;99.90;;;;;;5133704;27;20334;-38
2022/03/24 04:25:31;;;;;;;59.28;31.50;;;2.80;99.90;;;;;;5148249;27;20033;-39
2022/03/24 04:27:57;;;;;;;57.47;30.25;;;2.70;99.90;;;;;;5150911;27;20025;-38
2022/03/24 04:30:23;;;;;;;60.45;30.35;;;2.70;99.90;;;;;;5150699;27;20031;-38
2022/03/24 04:32:49;;;;;;;60.85;28.23;;;2.70;99.90;;;;;;5150689;27;20019;-38
2022/03/24 04:35:16;;;;;;;55.78;29.05;;;2.70;99.90;;;;;;5148540;27;20026;-38
2022/03/24 04:37:43;;;;;;;55.88;29.42;;;2.60;99.90;;;;;;5130063;27;20102;-38
2022/03/24 04:40:13;;;;;;;50.63;27.98;;;2.60;99.90;;;;;;5145147;27;20483;-38
2022/03/24 04:42:39;;;;;;;58.43;30.33;;;2.60;99.90;;;;;;5150583;27;20080;-38
2022/03/24 04:45:06;;;;;;;54.17;28.80;;;2.60;99.90;;;;;;5149180;27;20039;-38
2022/03/24 04:47:32;;;;;;;62.08;31.15;;;2.60;99.90;;;;;;5149866;27;20386;-38
2022/03/24 04:49:58;;;;;;;57.72;30.55;;;2.60;99.90;;;;;;5150358;27;20023;-38
2022/03/24 04:52:23;;;;;;;56.42;29.92;;;2.60;99.90;;;;;;5150026;27;20452;-39
2022/03/24 04:54:50;;;;;;;52.90;28.90;;;2.60;99.90;;;;;;5150155;27;20448;-38
2022/03/24 04:57:15;;;;;;;58.50;29.67;;;2.60;99.90;;;;;;5138043;27;20475;-39
2022/03/24 04:59:41;;;;;;;55.10;28.45;;;2.60;99.90;;;;;;5142399;27;20045;-39
2022/03/24 05:02:08;;;;;;;58.72;29.50;;;2.60;99.90;;;;;;5150180;27;20071;-38
2022/03/24 05:04:34;;;;;;;61.90;28.05;;;2.50;99.90;;;;;;5145516;27;20074;-38
2022/03/24 05:06:59;;;;;;;50.55;28.50;;;2.50;99.90;;;;;;5130643;27;20106;-38
2022/03/24 05:09:25;;;;;;;54.65;29.35;;;2.40;99.90;;;;;;5148470;27;20586;-39
2022/03/24 05:11:51;;;;;;;49.28;26.85;;;2.50;99.90;;;;;;5150931;27;20052;-39
2022/03/24 05:14:16;;;;;;;53.55;27.70;;;2.50;99.90;;;;;;5139377;27;20035;-39
2022/03/24 05:16:42;;;;;;;58.60;29.20;;;2.40;99.90;;;;;;5122252;27;20011;-39
2022/03/24 05:19:07;;;;;;;53.13;28.65;;;2.40;99.90;;;;;;5124101;27;20034;-39
2022/03/24 05:21:33;;;;;;;57.33;28.67;;;2.40;99.90;;;;;;5120478;27;20472;-39
2022/03/24 05:23:59;;;;;;;59.15;29.75;;;2.40;99.90;;;;;;5127015;27;20027;-40
2022/03/24 05:26:26;;;;;;;55.83;28.33;;;2.40;99.90;;;;;;5120868;27;20019;-39
2022/03/24 05:28:53;;;;;;;61.15;30.23;;;2.50;99.90;;;;;;5122357;27;20443;-39
2022/03/24 05:31:20;;;;;;;54.97;28.92;;;2.50;99.90;;;;;;5121321;27;20522;-39
2022/03/24 05:33:45;;;;;;;67.82;31.27;;;2.50;99.90;;;;;;5127341;27;20030;-39
2022/03/24 05:36:11;;;;;;;57.22;32.03;;;2.50;99.90;;;;;;5119339;27;20026;-39
2022/03/24 05:38:38;;;;;;;60.47;30.45;;;2.50;99.90;;;;;;5142091;27;20102;-39
2022/03/24 05:41:04;;;;;;;53.88;30.08;;;2.50;99.90;;;;;;5133253;27;20026;-39
2022/03/24 05:43:31;;;;;;;63.75;32.25;;;2.60;99.90;;;;;;5133209;27;20080;-39
2022/03/24 05:45:56;;;;;;;53.35;29.30;;;2.50;99.90;;;;;;5132277;27;20023;-39
2022/03/24 05:48:22;;;;;;;68.10;30.50;;;2.60;99.90;;;;;;5132957;27;20507;-39
2022/03/24 05:50:48;;;;;;;63.60;33.20;;;2.60;99.90;;;;;;5130454;27;20023;-39
2022/03/24 05:53:14;;;;;;;66.90;33.33;;;2.70;99.90;;;;;;5143470;27;20367;-39
2022/03/24 05:55:40;;;;;;;62.85;31.02;;;2.70;99.90;;;;;;5151865;27;20106;-39
2022/03/24 05:58:06;;;;;;;60.25;29.38;;;2.70;99.90;;;;;;5137091;27;20106;-39
2022/03/24 06:00:33;;;;;;;59.85;29.55;;;2.80;99.90;;;;;;5152562;27;20027;-39
2022/03/24 06:03:00;;;;;;;67.75;32.55;;;2.80;99.90;;;;;;5153306;27;20023;-39
2022/03/24 06:05:25;;;;;;;58.83;30.52;;;2.90;99.90;;;;;;5141937;27;20034;-39
2022/03/24 06:07:51;;;;;;;54.92;28.67;;;2.90;99.90;;;;;;5153463;27;20398;-39
2022/03/24 06:10:18;;;;;;;59.55;29.92;;;2.90;99.90;;;;;;5153624;27;20023;-39
2022/03/24 06:12:47;;;;;;;56.97;29.50;;;3.00;99.90;;;;;;5153301;27;20019;-39
2022/03/24 06:15:13;;;;;;;69.80;30.25;;;2.90;99.90;;;;;;5151707;27;20538;-39
2022/03/24 06:17:39;;;;;;;68.00;32.08;;;3.00;99.90;;;;;;5140847;27;20101;-39
2022/03/24 06:20:08;;;;;;;61.92;30.17;;;3.10;99.90;;;;;;5148455;27;20098;-39
2022/03/24 06:22:48;;;;;;;66.15;33.88;;;3.10;99.90;;;;;;5152447;27;20479;-39
2022/03/24 06:25:14;;;;;;;63.97;32.00;;;3.20;99.90;;;;;;5152979;27;20026;-39
2022/03/24 06:27:40;;;;;;;58.08;31.83;;;3.20;99.90;;;;;;5137216;27;20551;-40
2022/03/24 06:30:06;;;;;;;60.75;31.20;;;3.30;99.90;;;;;;5132510;27;20035;-39
2022/03/24 06:32:32;;;;;;;67.05;31.75;;;3.40;99.90;;;;;;5120371;27;20477;-39
2022/03/24 06:34:58;;;;;;;57.70;29.17;;;3.40;99.90;;;;;;5119729;27;20031;-39
2022/03/24 06:37:24;;;;;;;60.50;31.25;;;3.50;99.90;;;;;;5119025;27;20484;-39
2022/03/24 06:39:49;;;;;;;71.40;33.92;;;3.60;99.90;;;;;;5125544;27;20033;-39
2022/03/24 06:42:15;;;;;;;62.97;33.08;;;3.60;99.90;;;;;;5126174;27;20011;-40
2022/03/24 06:44:41;;;;;;;85.43;36.58;;;3.70;99.90;;;;;;5143132;27;20494;-39
2022/03/24 06:47:06;;;;;;;61.70;31.05;;;3.70;99.90;;;;;;5150902;27;20240;-39
2022/03/24 06:49:32;;;;;;;75.68;34.75;;;3.80;99.90;;;;;;5133344;27;20507;-39
2022/03/24 06:51:57;;;;;;;65.20;35.15;;;3.90;99.90;;;;;;5124675;27;20027;-39
2022/03/24 06:54:23;;;;;;;64.18;33.58;;;3.90;99.90;;;;;;5123136;27;20015;-39
2022/03/24 06:56:49;;;;;;;56.28;30.67;;;4.00;99.90;;;;;;5123849;27;20018;-39
2022/03/24 06:59:15;;;;;;;63.50;31.88;;;4.00;99.90;;;;;;5129394;27;20273;-40
2022/03/24 07:01:42;;;;;;;62.95;33.63;;;4.10;99.90;;;;;;5117869;27;20060;-38
2022/03/24 07:04:08;;;;;;;60.47;33.03;;;4.20;99.90;;;;;;5121332;27;20015;-39
2022/03/24 07:06:33;;;;;;;52.42;30.90;;;4.20;99.90;;;;;;5117944;27;20064;-38
2022/03/24 07:08:59;;;;;;;62.08;33.30;;;4.30;99.90;;;;;;5122445;27;20055;-39
2022/03/24 07:11:24;;;;;;;59.75;33.17;;;4.40;99.90;;;;;;5118937;27;20097;-40
2022/03/24 07:13:50;;;;;;;65.32;33.85;;;4.50;99.90;;;;;;5116049;27;20036;-38
2022/03/24 07:16:16;;;;;;;62.47;34.33;;;4.60;99.90;;;;;;5114839;27;20513;-39
2022/03/24 07:18:41;;;;;;;62.63;33.53;;;4.70;99.90;;;;;;5118828;27;20519;-39
2022/03/24 07:21:07;;;;;;;65.13;34.50;;;4.80;99.90;;;;;;5125919;27;20015;-38
2022/03/24 07:23:32;;;;;;;62.17;34.58;;;4.80;99.90;;;;;;5129412;27;20407;-39
2022/03/24 07:25:58;;;;;;;64.05;32.95;;;4.90;99.90;;;;;;5118264;27;20050;-39
2022/03/24 07:28:23;;;;;;;65.53;31.35;;;5.00;99.90;;;;;;5123488;27;20102;-38
2022/03/24 07:30:50;;;;;;;63.85;34.08;;;5.00;99.90;;;;;;5126802;27;20031;-39
2022/03/24 07:33:20;;;;;;;58.78;31.65;;;5.10;99.90;;;;;;5110390;27;20391;-39
2022/03/24 07:35:46;;;;;;;63.42;34.55;;;5.20;99.90;;;;;;5136396;27;20071;-39
2022/03/24 07:38:40;;;;;;;52.88;30.40;;;5.30;99.90;;;;;;5110120;27;20283;-38
2022/03/24 07:41:06;;;;;;;57.45;31.45;;;5.40;99.90;;;;;;5123092;27;20042;-39
2022/03/24 07:43:32;;;;;;;56.83;30.67;;;5.50;99.90;;;;;;5124508;27;20023;-38
2022/03/24 07:45:57;;;;;;;72.03;35.08;;;5.60;99.90;;;;;;5122366;27;20062;-39
2022/03/24 07:48:26;;;;;;;58.50;31.58;;;5.70;99.90;;;;;;5117133;27;20034;-39
2022/03/24 07:50:55;;;;;;;64.60;34.63;;;5.80;99.90;;;;;;5121687;27;20023;-39
2022/03/24 07:53:51;;;;;;;60.42;32.65;;;5.90;99.90;;;;;;5119150;27;20097;-39
2022/03/24 07:56:18;;;;;;;62.08;32.78;;;6.10;99.90;;;;;;5117587;27;20081;-38
2022/03/24 07:58:44;;;;;;;54.13;28.63;;;6.20;99.90;;;;;;5120529;27;20019;-39
2022/03/24 08:01:11;;;;;;;63.53;31.27;;;6.40;99.90;;;;;;5121356;27;20496;-38
2022/03/24 08:03:37;;;;;;;53.30;29.85;;;6.50;99.90;;;;;;5115511;27;20083;-38
2022/03/24 08:06:03;;;;;;;58.58;31.30;;;6.60;99.40;;;;;;5119865;27;20031;-39
2022/03/24 08:08:30;;;;;;;58.28;29.23;;;6.90;99.10;;;;;;5117230;27;20565;-39
2022/03/24 08:10:56;;;;;;;54.80;29.00;;;7.00;98.90;;;;;;5119683;27;20024;-39
2022/03/24 08:13:23;;;;;;;57.75;30.00;;;7.20;97.40;;;;;;5124679;27;20035;-39
2022/03/24 08:15:49;;;;;;;49.40;28.63;;;7.40;97.60;;;;;;5120613;27;20516;-39
2022/03/24 08:18:17;;;;;;;54.10;29.48;;;7.60;96.00;;;;;;5122642;27;20392;-38
2022/03/24 08:20:44;;;;;;;51.20;28.85;;;7.80;95.90;;;;;;5119989;27;20019;-38
2022/03/24 08:23:11;;;;;;;49.78;25.73;;;8.10;94.10;;;;;;5118923;27;20023;-38
2022/03/24 08:25:38;;;;;;;50.78;27.38;;;8.60;93.90;;;;;;5121794;27;20035;-39
2022/03/24 08:28:08;;;;;;;46.00;26.52;;;9.40;92.00;;;;;;5120967;27;20019;-39
2022/03/24 08:30:34;;;;;;;43.67;26.33;;;10.60;85.70;;;;;;5120724;27;20526;-39
2022/03/24 08:32:59;;;;;;;40.13;25.02;;;12.60;74.50;;;;;;5119140;27;20028;-39
2022/03/24 08:35:25;;;;;;;41.13;25.38;;;14.30;66.50;;;;;;5118213;27;20064;-39
2022/03/24 08:37:51;;;;;;;36.30;22.60;;;16.30;58.80;;;;;;5119071;27;20066;-38
2022/03/24 08:40:17;;;;;;;38.00;25.42;;;17.50;54.20;;;;;;5120673;27;20517;-38
2022/03/24 08:42:43;;;;;;;37.55;24.42;;;18.40;47.80;;;;;;5121597;27;20020;-39
2022/03/24 08:45:11;;;;;;;30.23;21.95;;;18.80;48.50;;;;;;5119878;27;20032;-39
2022/03/24 08:47:37;;;;;;;31.13;22.05;;;20.10;45.30;;;;;;5117670;27;20114;-42
2022/03/24 08:50:07;;;;;;;28.58;20.52;;;21.30;42.60;;;;;;5120725;27;20130;-40
2022/03/24 08:52:35;;;;;;;27.13;20.38;;;22.20;41.00;;;;;;5119496;27;20019;-39
2022/03/24 08:55:01;;;;;;;29.63;21.52;;;22.90;39.80;;;;;;5120103;27;20091;-41
2022/03/24 08:57:27;;;;;;;26.60;19.80;;;23.50;36.80;;;;;;5119612;27;20015;-39
2022/03/24 08:59:54;;;;;;;26.20;21.08;;;23.90;36.80;;;;;;5118425;27;20027;-39
2022/03/24 09:02:20;;;;;;;29.60;20.23;;;23.90;36.30;;;;;;5124045;27;20365;-40
2022/03/24 09:04:47;;;;;;;29.95;21.25;;;24.30;36.30;;;;;;5118303;28;20016;-41
2022/03/24 09:07:13;;;;;;;24.65;20.98;;;24.80;35.00;;;;;;5121373;27;20020;-42
2022/03/24 09:09:40;;;;;;;28.73;18.52;;;25.30;36.50;;;;;;5113800;27;20016;-40
2022/03/24 09:12:06;;;;;;;23.90;20.13;;;25.70;34.10;;;;;;5115346;27;20026;-40
2022/03/24 09:14:32;;;;;;;22.65;19.02;;;26.10;34.40;;;;;;5121969;27;20118;-41
2022/03/24 09:17:10;;;;;;;24.13;19.45;;;26.20;32.20;;;;;;5116818;27;20150;-40
2022/03/24 09:19:36;;;;;;;19.90;17.20;;;26.40;33.40;;;;;;5116144;28;20481;-40
2022/03/24 09:22:05;;;;;;;21.83;16.90;;;26.70;31.60;;;;;;5120361;27;20016;-41
2022/03/24 09:24:31;;;;;;;24.30;19.33;;;27.20;33.10;;;;;;5120139;27;20098;-40
2022/03/24 09:26:57;;;;;;;19.65;17.35;;;27.50;32.00;;;;;;5117248;27;20027;-41
2022/03/24 09:29:23;;;;;;;19.45;16.50;;;28.00;32.70;;;;;;5120210;27;20033;-41
2022/03/24 09:31:50;;;;;;;26.08;18.67;;;27.70;31.90;;;;;;5117771;27;20475;-41
2022/03/24 09:34:15;;;;;;;20.92;17.92;;;28.10;30.20;;;;;;5121229;27;20026;-40
2022/03/24 09:36:41;;;;;;;18.35;16.45;;;27.70;31.80;;;;;;5116198;27;20024;-39
2022/03/24 09:39:08;;;;;;;19.77;16.45;;;28.30;31.60;;;;;;5117486;28;20403;-42
2022/03/24 09:41:35;;;;;;;25.92;18.25;;;28.30;32.00;;;;;;5116175;28;20102;-41
2022/03/24 09:44:02;;;;;;;19.48;15.50;;;28.00;30.00;;;;;;5114944;27;20031;-41
2022/03/24 09:46:28;;;;;;;22.45;15.35;;;28.00;29.60;;;;;;5116642;28;20030;-40
2022/03/24 09:48:54;;;;;;;18.42;14.52;;;28.20;31.30;;;;;;5115743;27;20023;-40
2022/03/24 09:51:22;;;;;;;19.00;15.90;;;28.60;29.20;;;;;;5120748;27;20068;-41
2022/03/24 09:53:47;;;;;;;18.48;14.52;;;28.30;29.60;;;;;;5118248;27;20437;-40
2022/03/24 09:56:13;;;;;;;20.02;15.45;;;28.20;29.90;;;;;;5119789;27;20023;-40
2022/03/24 09:58:41;;;;;;;17.13;13.40;;;28.60;28.40;;;;;;5119888;27;20007;-41
2022/03/24 10:01:07;;;;;;;19.52;14.95;;;28.70;30.50;;;;;;5124871;27;20015;-40
2022/03/24 10:04:24;;;;;;;20.10;14.38;;;28.90;29.10;;;;;;5121058;27;20568;-41
2022/03/24 10:07:01;;;;;;;22.42;14.18;;;29.60;28.60;;;;;;5095599;27;20130;-41
2022/03/24 10:09:43;;;;;;;18.02;15.15;;;29.20;27.80;;;;;;5123734;27;20087;-41
2022/03/24 10:12:37;;;;;;;16.38;13.38;;;28.80;29.80;;;;;;5123058;27;20019;-40
2022/03/24 10:15:12;;;;;;;14.82;12.43;;;29.40;29.10;;;;;;5120499;27;20098;-41
2022/03/24 10:17:40;;;;;;;15.68;12.02;;;29.30;27.40;;;;;;5122986;27;20023;-41
2022/03/24 10:20:08;;;;;;;17.08;13.30;;;29.30;28.10;;;;;;5124219;27;20099;-40
2022/03/24 10:22:35;;;;;;;16.10;12.53;;;30.30;27.50;;;;;;5120665;27;20034;-41
2022/03/24 10:25:17;;;;;;;17.42;13.32;;;30.10;28.30;;;;;;5122974;27;20023;-40
2022/03/24 10:27:43;;;;;;;16.33;11.88;;;29.40;27.10;;;;;;5123145;27;20015;-40
2022/03/24 10:30:11;;;;;;;15.98;12.00;;;29.30;28.00;;;;;;5120412;27;20023;-46
2022/03/24 10:32:36;;;;;;;20.55;13.38;;;30.40;26.80;;;;;;5119924;27;20492;-46
2022/03/24 10:35:10;;;;;;;13.52;11.80;;;31.10;26.10;;;;;;5120594;27;20062;-51
2022/03/24 10:37:37;;;;;;;13.82;10.82;;;30.60;26.50;;;;;;5122496;27;20022;-47
2022/03/24 10:40:05;;;;;;;20.42;13.18;;;30.20;28.00;;;;;;5121861;27;20026;-47
2022/03/24 10:42:36;;;;;;;16.63;12.65;;;29.90;26.60;;;;;;5121350;27;20012;-49
2022/03/24 10:45:21;;;;;;;16.75;12.10;;;30.10;25.90;;;;;;5120641;27;20034;-50
2022/03/24 10:48:00;;;;;;;14.18;10.93;;;30.10;27.50;;;;;;5120796;27;20016;-46
2022/03/24 10:50:40;;;;;;;13.32;10.73;;;30.30;26.80;;;;;;5120073;27;20015;-50
2022/03/24 10:53:15;;;;;;;17.20;10.70;;;30.80;26.40;;;;;;5124251;27;20027;-47
2022/03/24 10:55:47;;;;;;;14.60;11.30;;;31.10;27.10;;;;;;5119896;27;20030;-52
2022/03/24 10:58:28;;;;;;;14.70;10.90;;;31.30;26.60;;;;;;5119505;27;20134;-46
2022/03/24 11:00:58;;;;;;;16.60;10.95;;;31.30;25.40;;;;;;5120241;27;20128;-47
2022/03/24 11:03:24;;;;;;;17.05;12.73;;;31.80;26.60;;;;;;5121019;27;20061;-47
2022/03/24 11:05:50;;;;;;;13.82;10.73;;;30.90;27.10;;;;;;5123306;27;20019;-49
2022/03/24 11:08:17;;;;;;;16.05;11.45;;;30.50;27.20;;;;;;5120781;27;20018;-50
2022/03/24 11:10:48;;;;;;;18.13;12.45;;;30.60;27.20;;;;;;5120706;27;20019;-45
2022/03/24 11:13:25;;;;;;;16.23;12.30;;;30.40;27.50;;;;;;5120793;27;20022;-49
2022/03/24 11:15:52;;;;;;;13.57;11.52;;;30.00;27.40;;;;;;5121171;27;20581;-50
2022/03/24 11:18:19;;;;;;;17.73;12.63;;;30.30;26.60;;;;;;5118954;27;20043;-47
2022/03/24 11:20:46;;;;;;;15.65;11.75;;;30.50;27.00;;;;;;5119599;27;20024;-45
2022/03/24 11:23:30;;;;;;;18.35;12.52;;;30.00;27.60;;;;;;5119885;27;20031;-49
2022/03/24 11:25:58;;;;;;;19.40;11.48;;;29.70;28.10;;;;;;5125211;27;20037;-49
2022/03/24 11:28:24;;;;;;;18.42;12.60;;;30.10;26.70;;;;;;5112511;27;20110;-47
2022/03/24 11:30:51;;;;;;;20.60;13.07;;;30.00;26.50;;;;;;5115149;27;20111;-46
2022/03/24 11:33:17;;;;;;;19.85;12.50;;;29.90;27.20;;;;;;5123627;27;20531;-46
2022/03/24 11:35:43;;;;;;;15.48;11.50;;;29.50;27.50;;;;;;5127256;27;20023;-47
2022/03/24 11:38:09;;;;;;;17.70;12.00;;;30.10;26.80;;;;;;5125564;27;20046;-49
2022/03/24 11:40:36;;;;;;;17.85;13.00;;;30.10;27.20;;;;;;5120603;27;20011;-47
2022/03/24 11:43:15;;;;;;;17.70;12.05;;;28.70;26.50;;;;;;5120426;27;20106;-47
2022/03/24 11:45:49;;;;;;;18.67;12.02;;;28.60;28.10;;;;;;5122765;27;20026;-46
2022/03/24 11:48:17;;;;;;;15.05;11.93;;;28.50;27.90;;;;;;5124946;27;20027;-47
2022/03/24 11:50:45;;;;;;;21.02;12.57;;;28.80;27.90;;;;;;5132168;27;20643;-47
2022/03/24 11:53:19;;;;;;;17.52;11.25;;;28.90;28.00;;;;;;5144227;27;20054;-47
2022/03/24 11:56:05;;;;;;;15.80;11.23;;;29.60;26.50;;;;;;5152962;27;20054;-47
2022/03/24 11:58:34;;;;;;;14.98;11.73;;;29.60;26.90;;;;;;5138626;27;20026;-46
2022/03/24 12:01:21;;;;;;;15.02;11.10;;;29.50;27.40;;;;;;5134009;27;20129;-50
2022/03/24 12:03:56;;;;;;;18.13;10.63;;;29.30;26.70;;;;;;5136818;27;20019;-49
2022/03/24 12:06:40;;;;;;;15.50;9.32;;;29.00;26.30;;;;;;5139474;27;20517;-46
2022/03/24 12:09:10;;;;;;;16.08;10.65;;;29.10;26.10;;;;;;5133280;27;20055;-47
2022/03/24 12:11:38;;;;;;;15.95;12.48;;;29.10;26.40;;;;;;5151806;27;20033;-46
2022/03/24 12:14:07;;;;;;;17.52;10.90;;;28.40;27.80;;;;;;5137409;27;20023;-46
2022/03/24 12:16:37;;;;;;;16.35;11.15;;;28.20;27.90;;;;;;5151343;27;20037;-46
2022/03/24 12:19:03;;;;;;;18.15;11.77;;;28.30;26.50;;;;;;5146202;27;20027;-47
2022/03/24 12:21:30;;;;;;;17.48;12.27;;;27.60;27.30;;;;;;5135756;27;20039;-46
2022/03/24 12:24:08;;;;;;;16.65;11.55;;;27.30;27.60;;;;;;5120042;27;20034;-45
2022/03/24 12:26:39;;;;;;;19.02;10.88;;;26.90;27.60;;;;;;5134954;27;20706;-45
2022/03/24 12:29:11;;;;;;;18.70;11.25;;;26.60;28.50;;;;;;5137339;27;20027;-45
2022/03/24 12:32:11;;;;;;;20.30;12.88;;;26.30;30.30;;;;;;5140299;27;20098;-45
2022/03/24 12:34:39;;;;;;;;;;;25.70;30.10;;;;;;5130772;27;20022;-46
2022/03/24 12:37:29;;;;;;;14.32;9.60;;;25.20;28.80;;;;;;5132491;27;19903;-45
2022/03/24 12:40:07;;;;;;;22.10;11.20;;;24.80;28.40;;;;;;5119210;27;20023;-47
2022/03/24 12:42:50;;;;;;;22.40;10.70;;;24.90;29.00;;;;;;5114102;27;20368;-47